sensor_id;sensor_type;location;lat;lon;timestamp;P1;durP1;ratioP1;P2;durP2;ratioP2
75589;SDS011;64169;47.240;11.312;2023-07-24T00:00:38;12.90;;;4.90;;
75589;SDS011;64169;47.240;11.312;2023-07-24T00:03:05;12.75;;;5.30;;
75589;SDS011;64169;47.240;11.312;2023-07-24T00:05:30;12.50;;;5.07;;
75589;SDS011;64169;47.240;11.312;2023-07-24T00:07:56;13.25;;;5.30;;
75589;SDS011;64169;47.240;11.312;2023-07-24T00:10:21;13.77;;;6.35;;
75589;SDS011;64169;47.240;11.312;2023-07-24T00:12:47;12.73;;;5.40;;
75589;SDS011;64169;47.240;11.312;2023-07-24T00:15:12;10.65;;;5.22;;
75589;SDS011;64169;47.240;11.312;2023-07-24T00:17:37;12.77;;;4.65;;
75589;SDS011;64169;47.240;11.312;2023-07-24T00:20:03;11.10;;;5.22;;
75589;SDS011;64169;47.240;11.312;2023-07-24T00:22:29;12.48;;;5.40;;
75589;SDS011;64169;47.240;11.312;2023-07-24T00:24:54;10.43;;;4.57;;
75589;SDS011;64169;47.240;11.312;2023-07-24T00:27:20;11.35;;;5.05;;
75589;SDS011;64169;47.240;11.312;2023-07-24T00:29:45;12.15;;;4.68;;
75589;SDS011;64169;47.240;11.312;2023-07-24T00:32:11;12.70;;;5.25;;
75589;SDS011;64169;47.240;11.312;2023-07-24T00:34:36;11.75;;;4.85;;
75589;SDS011;64169;47.240;11.312;2023-07-24T00:37:02;13.82;;;5.68;;
75589;SDS011;64169;47.240;11.312;2023-07-24T00:39:28;12.05;;;4.90;;
75589;SDS011;64169;47.240;11.312;2023-07-24T00:41:54;10.43;;;5.15;;
75589;SDS011;64169;47.240;11.312;2023-07-24T00:44:20;10.98;;;5.20;;
75589;SDS011;64169;47.240;11.312;2023-07-24T00:46:45;12.02;;;5.82;;
75589;SDS011;64169;47.240;11.312;2023-07-24T00:49:11;15.32;;;6.03;;
75589;SDS011;64169;47.240;11.312;2023-07-24T00:51:36;12.27;;;5.22;;
75589;SDS011;64169;47.240;11.312;2023-07-24T00:54:02;11.60;;;5.05;;
75589;SDS011;64169;47.240;11.312;2023-07-24T00:56:28;14.60;;;6.80;;
75589;SDS011;64169;47.240;11.312;2023-07-24T00:58:55;14.90;;;5.28;;
75589;SDS011;64169;47.240;11.312;2023-07-24T01:01:21;11.85;;;5.22;;
75589;SDS011;64169;47.240;11.312;2023-07-24T01:03:47;11.38;;;5.40;;
75589;SDS011;64169;47.240;11.312;2023-07-24T01:06:13;12.55;;;5.72;;
75589;SDS011;64169;47.240;11.312;2023-07-24T01:08:38;11.02;;;5.05;;
75589;SDS011;64169;47.240;11.312;2023-07-24T01:11:08;11.95;;;5.22;;
75589;SDS011;64169;47.240;11.312;2023-07-24T01:13:39;12.75;;;5.47;;
75589;SDS011;64169;47.240;11.312;2023-07-24T01:16:09;13.13;;;5.68;;
75589;SDS011;64169;47.240;11.312;2023-07-24T01:18:35;14.13;;;6.20;;
75589;SDS011;64169;47.240;11.312;2023-07-24T01:21:02;10.15;;;4.93;;
75589;SDS011;64169;47.240;11.312;2023-07-24T01:26:07;13.88;;;6.03;;
75589;SDS011;64169;47.240;11.312;2023-07-24T01:28:33;11.15;;;5.30;;
75589;SDS011;64169;47.240;11.312;2023-07-24T01:30:58;12.45;;;5.25;;
75589;SDS011;64169;47.240;11.312;2023-07-24T01:33:24;12.02;;;6.05;;
75589;SDS011;64169;47.240;11.312;2023-07-24T01:35:54;12.07;;;5.35;;
75589;SDS011;64169;47.240;11.312;2023-07-24T01:38:21;11.35;;;5.20;;
75589;SDS011;64169;47.240;11.312;2023-07-24T01:40:47;11.98;;;5.80;;
75589;SDS011;64169;47.240;11.312;2023-07-24T01:43:13;14.45;;;5.93;;
75589;SDS011;64169;47.240;11.312;2023-07-24T01:45:39;12.90;;;5.30;;
75589;SDS011;64169;47.240;11.312;2023-07-24T01:48:04;12.93;;;5.85;;
75589;SDS011;64169;47.240;11.312;2023-07-24T01:50:30;15.75;;;5.25;;
75589;SDS011;64169;47.240;11.312;2023-07-24T01:52:56;12.15;;;5.88;;
75589;SDS011;64169;47.240;11.312;2023-07-24T01:55:21;11.57;;;4.90;;
75589;SDS011;64169;47.240;11.312;2023-07-24T01:57:47;12.88;;;5.85;;
75589;SDS011;64169;47.240;11.312;2023-07-24T02:00:12;10.65;;;4.88;;
75589;SDS011;64169;47.240;11.312;2023-07-24T02:02:37;12.55;;;5.93;;
75589;SDS011;64169;47.240;11.312;2023-07-24T02:05:03;14.63;;;6.07;;
75589;SDS011;64169;47.240;11.312;2023-07-24T02:07:29;12.43;;;5.75;;
75589;SDS011;64169;47.240;11.312;2023-07-24T02:09:55;13.35;;;5.50;;
75589;SDS011;64169;47.240;11.312;2023-07-24T02:12:20;10.65;;;4.75;;
75589;SDS011;64169;47.240;11.312;2023-07-24T02:14:46;11.75;;;4.82;;
75589;SDS011;64169;47.240;11.312;2023-07-24T02:17:15;9.98;;;5.18;;
75589;SDS011;64169;47.240;11.312;2023-07-24T02:19:40;12.43;;;5.35;;
75589;SDS011;64169;47.240;11.312;2023-07-24T02:22:06;13.95;;;6.38;;
75589;SDS011;64169;47.240;11.312;2023-07-24T02:24:31;12.32;;;5.85;;
75589;SDS011;64169;47.240;11.312;2023-07-24T02:26:56;11.63;;;5.22;;
75589;SDS011;64169;47.240;11.312;2023-07-24T02:29:22;12.15;;;5.47;;
75589;SDS011;64169;47.240;11.312;2023-07-24T02:31:47;12.95;;;5.85;;
75589;SDS011;64169;47.240;11.312;2023-07-24T02:34:14;15.13;;;5.55;;
75589;SDS011;64169;47.240;11.312;2023-07-24T02:36:40;14.20;;;6.32;;
75589;SDS011;64169;47.240;11.312;2023-07-24T02:39:06;12.23;;;5.68;;
75589;SDS011;64169;47.240;11.312;2023-07-24T02:41:32;14.25;;;6.25;;
75589;SDS011;64169;47.240;11.312;2023-07-24T02:43:57;13.55;;;5.70;;
75589;SDS011;64169;47.240;11.312;2023-07-24T02:46:23;12.98;;;5.25;;
75589;SDS011;64169;47.240;11.312;2023-07-24T02:48:50;12.02;;;5.07;;
75589;SDS011;64169;47.240;11.312;2023-07-24T02:51:15;13.32;;;6.13;;
75589;SDS011;64169;47.240;11.312;2023-07-24T02:53:41;11.50;;;5.18;;
75589;SDS011;64169;47.240;11.312;2023-07-24T02:56:06;13.00;;;5.35;;
75589;SDS011;64169;47.240;11.312;2023-07-24T02:58:32;11.65;;;4.88;;
75589;SDS011;64169;47.240;11.312;2023-07-24T03:01:07;12.27;;;5.65;;
75589;SDS011;64169;47.240;11.312;2023-07-24T03:03:33;13.82;;;6.15;;
75589;SDS011;64169;47.240;11.312;2023-07-24T03:05:59;14.43;;;6.35;;
75589;SDS011;64169;47.240;11.312;2023-07-24T03:08:25;13.20;;;5.97;;
75589;SDS011;64169;47.240;11.312;2023-07-24T03:10:50;13.43;;;5.75;;
75589;SDS011;64169;47.240;11.312;2023-07-24T03:13:16;11.15;;;4.75;;
75589;SDS011;64169;47.240;11.312;2023-07-24T03:15:41;13.85;;;6.03;;
75589;SDS011;64169;47.240;11.312;2023-07-24T03:18:06;13.23;;;5.90;;
75589;SDS011;64169;47.240;11.312;2023-07-24T03:20:32;11.60;;;5.47;;
75589;SDS011;64169;47.240;11.312;2023-07-24T03:22:57;13.60;;;5.55;;
75589;SDS011;64169;47.240;11.312;2023-07-24T03:25:23;11.05;;;5.70;;
75589;SDS011;64169;47.240;11.312;2023-07-24T03:27:48;10.80;;;4.82;;
75589;SDS011;64169;47.240;11.312;2023-07-24T03:30:14;12.90;;;5.90;;
75589;SDS011;64169;47.240;11.312;2023-07-24T03:32:39;12.10;;;5.70;;
75589;SDS011;64169;47.240;11.312;2023-07-24T03:35:05;13.57;;;5.72;;
75589;SDS011;64169;47.240;11.312;2023-07-24T03:37:31;14.40;;;5.93;;
75589;SDS011;64169;47.240;11.312;2023-07-24T03:39:57;14.57;;;6.07;;
75589;SDS011;64169;47.240;11.312;2023-07-24T03:42:30;11.80;;;5.30;;
75589;SDS011;64169;47.240;11.312;2023-07-24T03:44:56;12.20;;;5.63;;
75589;SDS011;64169;47.240;11.312;2023-07-24T03:47:22;11.68;;;5.50;;
75589;SDS011;64169;47.240;11.312;2023-07-24T03:49:48;14.93;;;6.88;;
75589;SDS011;64169;47.240;11.312;2023-07-24T03:52:14;12.18;;;6.00;;
75589;SDS011;64169;47.240;11.312;2023-07-24T03:54:39;13.82;;;5.32;;
75589;SDS011;64169;47.240;11.312;2023-07-24T03:57:05;13.00;;;5.65;;
75589;SDS011;64169;47.240;11.312;2023-07-24T03:59:30;13.85;;;6.30;;
75589;SDS011;64169;47.240;11.312;2023-07-24T04:01:56;13.45;;;5.35;;
75589;SDS011;64169;47.240;11.312;2023-07-24T04:04:22;11.48;;;5.70;;
75589;SDS011;64169;47.240;11.312;2023-07-24T04:06:47;14.90;;;6.13;;
75589;SDS011;64169;47.240;11.312;2023-07-24T04:09:13;14.07;;;6.10;;
75589;SDS011;64169;47.240;11.312;2023-07-24T04:11:44;12.15;;;5.03;;
75589;SDS011;64169;47.240;11.312;2023-07-24T04:14:10;15.45;;;6.68;;
75589;SDS011;64169;47.240;11.312;2023-07-24T04:16:35;12.75;;;5.53;;
75589;SDS011;64169;47.240;11.312;2023-07-24T04:19:01;12.90;;;5.13;;
75589;SDS011;64169;47.240;11.312;2023-07-24T04:21:27;13.30;;;6.32;;
75589;SDS011;64169;47.240;11.312;2023-07-24T04:23:52;13.88;;;5.22;;
75589;SDS011;64169;47.240;11.312;2023-07-24T04:26:17;14.35;;;5.80;;
75589;SDS011;64169;47.240;11.312;2023-07-24T04:28:43;12.52;;;5.35;;
75589;SDS011;64169;47.240;11.312;2023-07-24T04:31:08;14.13;;;5.75;;
75589;SDS011;64169;47.240;11.312;2023-07-24T04:33:33;11.23;;;4.82;;
75589;SDS011;64169;47.240;11.312;2023-07-24T04:35:59;13.43;;;5.70;;
75589;SDS011;64169;47.240;11.312;2023-07-24T04:38:24;12.27;;;5.63;;
75589;SDS011;64169;47.240;11.312;2023-07-24T04:40:50;13.30;;;5.55;;
75589;SDS011;64169;47.240;11.312;2023-07-24T04:43:15;12.85;;;5.57;;
75589;SDS011;64169;47.240;11.312;2023-07-24T04:45:41;15.57;;;5.60;;
75589;SDS011;64169;47.240;11.312;2023-07-24T04:48:06;15.02;;;5.78;;
75589;SDS011;64169;47.240;11.312;2023-07-24T04:50:31;14.07;;;5.95;;
75589;SDS011;64169;47.240;11.312;2023-07-24T04:52:58;12.23;;;5.88;;
75589;SDS011;64169;47.240;11.312;2023-07-24T04:55:23;11.85;;;4.97;;
75589;SDS011;64169;47.240;11.312;2023-07-24T04:57:49;12.30;;;5.60;;
75589;SDS011;64169;47.240;11.312;2023-07-24T05:00:15;13.90;;;5.90;;
75589;SDS011;64169;47.240;11.312;2023-07-24T05:02:40;13.65;;;6.32;;
75589;SDS011;64169;47.240;11.312;2023-07-24T05:05:06;10.80;;;5.43;;
75589;SDS011;64169;47.240;11.312;2023-07-24T05:07:32;12.43;;;6.15;;
75589;SDS011;64169;47.240;11.312;2023-07-24T05:09:57;10.77;;;5.13;;
75589;SDS011;64169;47.240;11.312;2023-07-24T05:12:23;12.93;;;5.60;;
75589;SDS011;64169;47.240;11.312;2023-07-24T05:14:48;16.05;;;5.68;;
75589;SDS011;64169;47.240;11.312;2023-07-24T05:17:14;13.55;;;5.63;;
75589;SDS011;64169;47.240;11.312;2023-07-24T05:19:39;12.93;;;5.13;;
75589;SDS011;64169;47.240;11.312;2023-07-24T05:22:04;15.48;;;5.57;;
75589;SDS011;64169;47.240;11.312;2023-07-24T05:24:30;15.93;;;6.47;;
75589;SDS011;64169;47.240;11.312;2023-07-24T05:26:56;14.15;;;5.70;;
75589;SDS011;64169;47.240;11.312;2023-07-24T05:29:21;16.30;;;6.82;;
75589;SDS011;64169;47.240;11.312;2023-07-24T05:31:47;12.75;;;5.90;;
75589;SDS011;64169;47.240;11.312;2023-07-24T05:34:12;12.55;;;6.30;;
75589;SDS011;64169;47.240;11.312;2023-07-24T05:36:38;12.73;;;6.53;;
75589;SDS011;64169;47.240;11.312;2023-07-24T05:39:03;12.95;;;5.50;;
75589;SDS011;64169;47.240;11.312;2023-07-24T05:41:28;12.27;;;6.07;;
75589;SDS011;64169;47.240;11.312;2023-07-24T05:43:54;20.65;;;7.53;;
75589;SDS011;64169;47.240;11.312;2023-07-24T05:46:20;14.60;;;6.30;;
75589;SDS011;64169;47.240;11.312;2023-07-24T05:48:46;13.05;;;6.18;;
75589;SDS011;64169;47.240;11.312;2023-07-24T05:51:11;13.30;;;6.22;;
75589;SDS011;64169;47.240;11.312;2023-07-24T05:53:37;14.10;;;6.68;;
75589;SDS011;64169;47.240;11.312;2023-07-24T05:56:02;13.45;;;6.00;;
75589;SDS011;64169;47.240;11.312;2023-07-24T05:58:28;19.17;;;7.07;;
75589;SDS011;64169;47.240;11.312;2023-07-24T06:00:54;14.88;;;6.28;;
75589;SDS011;64169;47.240;11.312;2023-07-24T06:03:20;15.27;;;6.88;;
75589;SDS011;64169;47.240;11.312;2023-07-24T06:05:52;14.18;;;6.63;;
75589;SDS011;64169;47.240;11.312;2023-07-24T06:08:18;15.35;;;6.00;;
75589;SDS011;64169;47.240;11.312;2023-07-24T06:10:48;12.65;;;5.70;;
75589;SDS011;64169;47.240;11.312;2023-07-24T06:13:17;13.48;;;6.00;;
75589;SDS011;64169;47.240;11.312;2023-07-24T06:15:43;11.90;;;5.95;;
75589;SDS011;64169;47.240;11.312;2023-07-24T06:18:09;13.02;;;5.97;;
75589;SDS011;64169;47.240;11.312;2023-07-24T06:20:34;14.23;;;5.93;;
75589;SDS011;64169;47.240;11.312;2023-07-24T06:23:00;16.48;;;6.10;;
75589;SDS011;64169;47.240;11.312;2023-07-24T06:25:25;13.75;;;6.07;;
75589;SDS011;64169;47.240;11.312;2023-07-24T06:27:50;11.77;;;5.05;;
75589;SDS011;64169;47.240;11.312;2023-07-24T06:30:16;13.93;;;5.63;;
75589;SDS011;64169;47.240;11.312;2023-07-24T06:32:42;12.52;;;5.13;;
75589;SDS011;64169;47.240;11.312;2023-07-24T06:35:08;14.23;;;6.38;;
75589;SDS011;64169;47.240;11.312;2023-07-24T06:37:33;12.80;;;6.80;;
75589;SDS011;64169;47.240;11.312;2023-07-24T06:39:59;15.65;;;6.55;;
75589;SDS011;64169;47.240;11.312;2023-07-24T06:42:24;14.93;;;6.20;;
75589;SDS011;64169;47.240;11.312;2023-07-24T06:44:50;12.70;;;6.10;;
75589;SDS011;64169;47.240;11.312;2023-07-24T06:47:15;13.65;;;6.50;;
75589;SDS011;64169;47.240;11.312;2023-07-24T06:49:41;13.40;;;6.40;;
75589;SDS011;64169;47.240;11.312;2023-07-24T06:52:06;12.88;;;5.95;;
75589;SDS011;64169;47.240;11.312;2023-07-24T06:54:32;15.48;;;5.82;;
75589;SDS011;64169;47.240;11.312;2023-07-24T06:56:57;14.93;;;6.50;;
75589;SDS011;64169;47.240;11.312;2023-07-24T06:59:23;12.20;;;6.32;;
75589;SDS011;64169;47.240;11.312;2023-07-24T07:01:48;14.27;;;6.85;;
75589;SDS011;64169;47.240;11.312;2023-07-24T07:04:14;12.68;;;6.07;;
75589;SDS011;64169;47.240;11.312;2023-07-24T07:06:39;14.68;;;6.15;;
75589;SDS011;64169;47.240;11.312;2023-07-24T07:09:05;15.73;;;6.55;;
75589;SDS011;64169;47.240;11.312;2023-07-24T07:11:31;16.35;;;6.00;;
75589;SDS011;64169;47.240;11.312;2023-07-24T07:13:57;12.95;;;6.40;;
75589;SDS011;64169;47.240;11.312;2023-07-24T07:16:22;13.10;;;5.95;;
75589;SDS011;64169;47.240;11.312;2023-07-24T07:18:47;11.55;;;6.15;;
75589;SDS011;64169;47.240;11.312;2023-07-24T07:21:13;15.77;;;7.25;;
75589;SDS011;64169;47.240;11.312;2023-07-24T07:23:38;15.40;;;5.68;;
75589;SDS011;64169;47.240;11.312;2023-07-24T07:26:04;14.27;;;5.97;;
75589;SDS011;64169;47.240;11.312;2023-07-24T07:28:29;14.35;;;6.70;;
75589;SDS011;64169;47.240;11.312;2023-07-24T07:30:54;15.90;;;6.65;;
75589;SDS011;64169;47.240;11.312;2023-07-24T07:33:20;15.07;;;7.22;;
75589;SDS011;64169;47.240;11.312;2023-07-24T07:35:49;18.42;;;7.43;;
75589;SDS011;64169;47.240;11.312;2023-07-24T07:38:14;16.30;;;7.13;;
75589;SDS011;64169;47.240;11.312;2023-07-24T07:40:40;15.55;;;7.78;;
75589;SDS011;64169;47.240;11.312;2023-07-24T07:43:06;16.85;;;7.65;;
75589;SDS011;64169;47.240;11.312;2023-07-24T07:45:31;18.73;;;8.70;;
75589;SDS011;64169;47.240;11.312;2023-07-24T07:47:56;16.33;;;7.65;;
75589;SDS011;64169;47.240;11.312;2023-07-24T07:50:22;19.05;;;9.25;;
75589;SDS011;64169;47.240;11.312;2023-07-24T07:52:51;18.73;;;8.60;;
75589;SDS011;64169;47.240;11.312;2023-07-24T07:55:17;17.13;;;8.65;;
75589;SDS011;64169;47.240;11.312;2023-07-24T07:57:44;19.00;;;8.55;;
75589;SDS011;64169;47.240;11.312;2023-07-24T08:00:09;18.63;;;8.07;;
75589;SDS011;64169;47.240;11.312;2023-07-24T08:02:35;17.92;;;7.75;;
75589;SDS011;64169;47.240;11.312;2023-07-24T08:05:05;19.02;;;8.18;;
75589;SDS011;64169;47.240;11.312;2023-07-24T08:07:32;14.70;;;8.25;;
75589;SDS011;64169;47.240;11.312;2023-07-24T08:09:57;16.98;;;8.80;;
75589;SDS011;64169;47.240;11.312;2023-07-24T08:12:22;19.90;;;9.57;;
75589;SDS011;64169;47.240;11.312;2023-07-24T08:14:48;17.63;;;8.70;;
75589;SDS011;64169;47.240;11.312;2023-07-24T08:17:13;18.05;;;8.18;;
75589;SDS011;64169;47.240;11.312;2023-07-24T08:19:39;18.10;;;8.48;;
75589;SDS011;64169;47.240;11.312;2023-07-24T08:22:04;15.52;;;8.38;;
75589;SDS011;64169;47.240;11.312;2023-07-24T08:24:33;18.20;;;9.02;;
75589;SDS011;64169;47.240;11.312;2023-07-24T08:26:59;18.38;;;8.88;;
75589;SDS011;64169;47.240;11.312;2023-07-24T08:29:24;15.40;;;8.80;;
75589;SDS011;64169;47.240;11.312;2023-07-24T08:31:49;19.40;;;7.65;;
75589;SDS011;64169;47.240;11.312;2023-07-24T08:34:15;16.42;;;7.80;;
75589;SDS011;64169;47.240;11.312;2023-07-24T08:36:40;15.43;;;7.35;;
75589;SDS011;64169;47.240;11.312;2023-07-24T08:39:06;16.42;;;8.30;;
75589;SDS011;64169;47.240;11.312;2023-07-24T08:41:31;14.18;;;6.35;;
75589;SDS011;64169;47.240;11.312;2023-07-24T08:43:59;14.05;;;6.82;;
75589;SDS011;64169;47.240;11.312;2023-07-24T08:46:25;13.77;;;6.18;;
75589;SDS011;64169;47.240;11.312;2023-07-24T08:48:51;13.65;;;6.90;;
75589;SDS011;64169;47.240;11.312;2023-07-24T08:51:17;15.48;;;7.35;;
75589;SDS011;64169;47.240;11.312;2023-07-24T08:53:47;15.65;;;6.97;;
75589;SDS011;64169;47.240;11.312;2023-07-24T08:56:12;16.85;;;7.63;;
75589;SDS011;64169;47.240;11.312;2023-07-24T08:58:39;16.33;;;6.72;;
75589;SDS011;64169;47.240;11.312;2023-07-24T09:01:05;11.75;;;6.43;;
75589;SDS011;64169;47.240;11.312;2023-07-24T09:03:31;14.82;;;7.20;;
75589;SDS011;64169;47.240;11.312;2023-07-24T09:05:57;16.50;;;7.28;;
75589;SDS011;64169;47.240;11.312;2023-07-24T09:08:32;15.55;;;7.05;;
75589;SDS011;64169;47.240;11.312;2023-07-24T09:11:01;13.75;;;6.57;;
75589;SDS011;64169;47.240;11.312;2023-07-24T09:13:28;19.55;;;8.35;;
75589;SDS011;64169;47.240;11.312;2023-07-24T09:15:53;15.57;;;8.23;;
75589;SDS011;64169;47.240;11.312;2023-07-24T09:18:20;16.95;;;6.97;;
75589;SDS011;64169;47.240;11.312;2023-07-24T09:20:46;14.30;;;6.90;;
75589;SDS011;64169;47.240;11.312;2023-07-24T09:23:12;15.13;;;7.32;;
75589;SDS011;64169;47.240;11.312;2023-07-24T09:25:39;15.68;;;7.57;;
75589;SDS011;64169;47.240;11.312;2023-07-24T09:28:23;15.27;;;6.70;;
75589;SDS011;64169;47.240;11.312;2023-07-24T09:30:55;13.93;;;7.13;;
75589;SDS011;64169;47.240;11.312;2023-07-24T09:33:22;15.40;;;7.50;;
75589;SDS011;64169;47.240;11.312;2023-07-24T09:35:58;14.45;;;6.95;;
75589;SDS011;64169;47.240;11.312;2023-07-24T09:38:24;15.07;;;6.57;;
75589;SDS011;64169;47.240;11.312;2023-07-24T09:40:52;15.18;;;7.18;;
75589;SDS011;64169;47.240;11.312;2023-07-24T09:43:18;14.30;;;6.88;;
75589;SDS011;64169;47.240;11.312;2023-07-24T09:45:51;12.68;;;6.40;;
75589;SDS011;64169;47.240;11.312;2023-07-24T09:48:17;14.10;;;7.45;;
75589;SDS011;64169;47.240;11.312;2023-07-24T09:50:44;11.63;;;6.10;;
75589;SDS011;64169;47.240;11.312;2023-07-24T09:55:47;14.30;;;7.20;;
75589;SDS011;64169;47.240;11.312;2023-07-24T09:58:18;13.52;;;6.60;;
75589;SDS011;64169;47.240;11.312;2023-07-24T10:00:44;14.38;;;6.47;;
75589;SDS011;64169;47.240;11.312;2023-07-24T10:03:10;15.45;;;7.00;;
75589;SDS011;64169;47.240;11.312;2023-07-24T10:05:35;14.65;;;6.85;;
75589;SDS011;64169;47.240;11.312;2023-07-24T10:08:01;14.60;;;6.32;;
75589;SDS011;64169;47.240;11.312;2023-07-24T10:10:26;15.20;;;7.38;;
75589;SDS011;64169;47.240;11.312;2023-07-24T10:12:54;13.60;;;7.03;;
75589;SDS011;64169;47.240;11.312;2023-07-24T10:15:20;15.30;;;7.18;;
75589;SDS011;64169;47.240;11.312;2023-07-24T10:17:45;18.60;;;8.25;;
75589;SDS011;64169;47.240;11.312;2023-07-24T10:20:11;15.32;;;6.95;;
75589;SDS011;64169;47.240;11.312;2023-07-24T10:22:40;13.77;;;7.10;;
75589;SDS011;64169;47.240;11.312;2023-07-24T10:25:07;13.10;;;6.22;;
75589;SDS011;64169;47.240;11.312;2023-07-24T10:27:39;14.73;;;6.75;;
75589;SDS011;64169;47.240;11.312;2023-07-24T10:30:09;13.50;;;6.55;;
75589;SDS011;64169;47.240;11.312;2023-07-24T10:32:44;13.75;;;6.03;;
75589;SDS011;64169;47.240;11.312;2023-07-24T10:35:11;14.38;;;6.97;;
75589;SDS011;64169;47.240;11.312;2023-07-24T10:37:37;13.90;;;6.82;;
75589;SDS011;64169;47.240;11.312;2023-07-24T10:40:03;15.10;;;6.95;;
75589;SDS011;64169;47.240;11.312;2023-07-24T10:42:29;14.30;;;6.45;;
75589;SDS011;64169;47.240;11.312;2023-07-24T10:45:08;13.35;;;6.75;;
75589;SDS011;64169;47.240;11.312;2023-07-24T10:47:35;14.60;;;7.10;;
75589;SDS011;64169;47.240;11.312;2023-07-24T10:50:01;14.25;;;6.18;;
75589;SDS011;64169;47.240;11.312;2023-07-24T10:52:31;13.45;;;6.72;;
75589;SDS011;64169;47.240;11.312;2023-07-24T10:55:00;14.50;;;6.72;;
75589;SDS011;64169;47.240;11.312;2023-07-24T10:57:27;14.13;;;6.30;;
75589;SDS011;64169;47.240;11.312;2023-07-24T10:59:54;14.35;;;6.93;;
75589;SDS011;64169;47.240;11.312;2023-07-24T11:02:19;12.10;;;5.50;;
75589;SDS011;64169;47.240;11.312;2023-07-24T11:04:45;12.48;;;5.63;;
75589;SDS011;64169;47.240;11.312;2023-07-24T11:07:11;12.48;;;6.22;;
75589;SDS011;64169;47.240;11.312;2023-07-24T11:09:36;12.10;;;6.47;;
75589;SDS011;64169;47.240;11.312;2023-07-24T11:12:10;14.10;;;6.57;;
75589;SDS011;64169;47.240;11.312;2023-07-24T11:14:51;14.20;;;6.68;;
75589;SDS011;64169;47.240;11.312;2023-07-24T11:17:21;12.57;;;6.22;;
75589;SDS011;64169;47.240;11.312;2023-07-24T11:19:47;16.60;;;6.00;;
75589;SDS011;64169;47.240;11.312;2023-07-24T11:22:12;13.10;;;6.45;;
75589;SDS011;64169;47.240;11.312;2023-07-24T11:24:43;14.18;;;6.55;;
75589;SDS011;64169;47.240;11.312;2023-07-24T11:27:12;11.60;;;6.38;;
75589;SDS011;64169;47.240;11.312;2023-07-24T11:29:39;16.05;;;7.03;;
75589;SDS011;64169;47.240;11.312;2023-07-24T11:32:05;18.15;;;7.78;;
75589;SDS011;64169;47.240;11.312;2023-07-24T11:34:30;14.10;;;7.03;;
75589;SDS011;64169;47.240;11.312;2023-07-24T11:36:56;14.93;;;6.97;;
75589;SDS011;64169;47.240;11.312;2023-07-24T11:39:22;14.73;;;6.40;;
75589;SDS011;64169;47.240;11.312;2023-07-24T11:41:48;13.15;;;6.25;;
75589;SDS011;64169;47.240;11.312;2023-07-24T11:44:13;13.07;;;6.82;;
75589;SDS011;64169;47.240;11.312;2023-07-24T11:46:41;13.32;;;6.10;;
75589;SDS011;64169;47.240;11.312;2023-07-24T11:49:08;12.50;;;5.97;;
75589;SDS011;64169;47.240;11.312;2023-07-24T11:51:36;10.63;;;5.38;;
75589;SDS011;64169;47.240;11.312;2023-07-24T11:54:05;12.82;;;6.00;;
75589;SDS011;64169;47.240;11.312;2023-07-24T11:56:36;13.40;;;5.80;;
75589;SDS011;64169;47.240;11.312;2023-07-24T11:59:14;12.82;;;6.22;;
75589;SDS011;64169;47.240;11.312;2023-07-24T12:01:40;11.25;;;5.88;;
75589;SDS011;64169;47.240;11.312;2023-07-24T12:04:06;12.60;;;6.35;;
75589;SDS011;64169;47.240;11.312;2023-07-24T12:06:33;13.48;;;6.38;;
75589;SDS011;64169;47.240;11.312;2023-07-24T12:09:02;11.50;;;6.00;;
75589;SDS011;64169;47.240;11.312;2023-07-24T12:11:32;13.05;;;6.63;;
75589;SDS011;64169;47.240;11.312;2023-07-24T12:13:58;14.23;;;6.43;;
75589;SDS011;64169;47.240;11.312;2023-07-24T12:16:23;12.93;;;6.47;;
75589;SDS011;64169;47.240;11.312;2023-07-24T12:18:49;12.65;;;6.28;;
75589;SDS011;64169;47.240;11.312;2023-07-24T12:21:14;12.55;;;5.93;;
75589;SDS011;64169;47.240;11.312;2023-07-24T12:23:40;11.70;;;6.40;;
75589;SDS011;64169;47.240;11.312;2023-07-24T12:26:05;10.43;;;4.78;;
75589;SDS011;64169;47.240;11.312;2023-07-24T12:28:31;11.70;;;5.40;;
75589;SDS011;64169;47.240;11.312;2023-07-24T12:30:56;11.30;;;4.97;;
75589;SDS011;64169;47.240;11.312;2023-07-24T12:33:21;9.65;;;4.68;;
75589;SDS011;64169;47.240;11.312;2023-07-24T12:35:49;11.32;;;4.93;;
75589;SDS011;64169;47.240;11.312;2023-07-24T12:38:14;10.25;;;5.20;;
75589;SDS011;64169;47.240;11.312;2023-07-24T12:40:40;9.70;;;4.65;;
75589;SDS011;64169;47.240;11.312;2023-07-24T12:43:05;10.82;;;5.70;;
75589;SDS011;64169;47.240;11.312;2023-07-24T12:45:31;9.50;;;4.28;;
75589;SDS011;64169;47.240;11.312;2023-07-24T12:47:56;11.43;;;5.05;;
75589;SDS011;64169;47.240;11.312;2023-07-24T12:50:22;10.35;;;4.70;;
75589;SDS011;64169;47.240;11.312;2023-07-24T12:52:48;12.77;;;5.70;;
75589;SDS011;64169;47.240;11.312;2023-07-24T12:55:13;11.32;;;5.28;;
75589;SDS011;64169;47.240;11.312;2023-07-24T12:57:39;11.05;;;4.93;;
75589;SDS011;64169;47.240;11.312;2023-07-24T13:00:05;10.57;;;5.18;;
75589;SDS011;64169;47.240;11.312;2023-07-24T13:02:31;9.65;;;5.10;;
75589;SDS011;64169;47.240;11.312;2023-07-24T13:04:57;9.85;;;4.88;;
75589;SDS011;64169;47.240;11.312;2023-07-24T13:07:22;9.23;;;4.03;;
75589;SDS011;64169;47.240;11.312;2023-07-24T13:09:48;11.60;;;4.72;;
75589;SDS011;64169;47.240;11.312;2023-07-24T13:12:13;10.43;;;4.53;;
75589;SDS011;64169;47.240;11.312;2023-07-24T13:14:38;11.68;;;5.70;;
75589;SDS011;64169;47.240;11.312;2023-07-24T13:17:04;11.63;;;4.78;;
75589;SDS011;64169;47.240;11.312;2023-07-24T13:19:30;9.95;;;5.22;;
75589;SDS011;64169;47.240;11.312;2023-07-24T13:21:56;11.20;;;4.90;;
75589;SDS011;64169;47.240;11.312;2023-07-24T13:24:22;11.35;;;5.50;;
75589;SDS011;64169;47.240;11.312;2023-07-24T13:26:47;11.02;;;4.95;;
75589;SDS011;64169;47.240;11.312;2023-07-24T13:29:12;10.00;;;4.47;;
75589;SDS011;64169;47.240;11.312;2023-07-24T13:31:38;11.48;;;4.82;;
75589;SDS011;64169;47.240;11.312;2023-07-24T13:34:05;11.48;;;4.78;;
75589;SDS011;64169;47.240;11.312;2023-07-24T13:36:31;10.93;;;5.03;;
75589;SDS011;64169;47.240;11.312;2023-07-24T13:38:56;12.15;;;5.53;;
75589;SDS011;64169;47.240;11.312;2023-07-24T13:41:21;12.38;;;5.63;;
75589;SDS011;64169;47.240;11.312;2023-07-24T13:43:47;10.23;;;4.53;;
75589;SDS011;64169;47.240;11.312;2023-07-24T13:46:12;12.15;;;5.13;;
75589;SDS011;64169;47.240;11.312;2023-07-24T13:48:38;9.50;;;4.38;;
75589;SDS011;64169;47.240;11.312;2023-07-24T13:51:03;10.27;;;4.75;;
75589;SDS011;64169;47.240;11.312;2023-07-24T13:53:28;8.85;;;4.47;;
75589;SDS011;64169;47.240;11.312;2023-07-24T13:55:54;10.80;;;4.53;;
75589;SDS011;64169;47.240;11.312;2023-07-24T13:58:19;9.75;;;4.65;;
75589;SDS011;64169;47.240;11.312;2023-07-24T14:00:45;9.90;;;4.60;;
75589;SDS011;64169;47.240;11.312;2023-07-24T14:03:10;11.70;;;4.85;;
75589;SDS011;64169;47.240;11.312;2023-07-24T14:05:36;11.73;;;4.95;;
75589;SDS011;64169;47.240;11.312;2023-07-24T14:08:04;11.50;;;5.07;;
75589;SDS011;64169;47.240;11.312;2023-07-24T14:10:30;11.45;;;4.80;;
75589;SDS011;64169;47.240;11.312;2023-07-24T14:12:55;11.95;;;4.80;;
75589;SDS011;64169;47.240;11.312;2023-07-24T14:15:21;11.20;;;4.80;;
75589;SDS011;64169;47.240;11.312;2023-07-24T14:17:46;11.30;;;4.88;;
75589;SDS011;64169;47.240;11.312;2023-07-24T14:20:12;10.77;;;4.72;;